< Typhoon 195406 1954 Season Typhoon 195408 >
Typhoon 195407 (NO-NAME)
General InformationTrack Information on Google Maps || Disaster Info.ResourceGoogle EarthGE AnimationAtom FeedGeoJSON
Detalied Best Track (Time Zone = UTC)
Year Month Day Hour Lat. Long. Pressure (hPa) Wind (kt) Class Image Chart
1954 8 18 18 13.5 144.8 1008 0 2 -- Chart
1954 8 19 00 13.7 144.9 1009 0 2 -- Chart
1954 8 19 06 13.9 145.0 1006 0 2 -- Chart
1954 8 19 12 14.0 145.1 1008 0 2 -- Chart
1954 8 19 18 14.8 144.7 1006 0 2 -- Chart
1954 8 20 00 15.7 143.8 1008 0 2 -- Chart
1954 8 20 06 16.9 142.4 1006 0 2 -- Chart
1954 8 20 12 17.4 141.9 1008 0 2 -- Chart
1954 8 20 18 17.8 141.3 1006 0 2 -- Chart
1954 8 21 00 18.1 140.6 1003 0 9 -- Chart
1954 8 21 06 19.2 139.7 1000 0 9 -- Chart
1954 8 21 12 19.6 138.8 1000 0 9 -- Chart
1954 8 21 18 20.0 137.9 1000 0 9 -- Chart
1954 8 22 00 20.5 137.0 1000 0 9 -- Chart
1954 8 22 06 21.1 136.0 1000 0 9 -- Chart
1954 8 22 12 22.0 135.0 1000 0 9 -- Chart
1954 8 22 18 22.7 133.9 1000 0 9 -- Chart
1954 8 23 00 23.5 132.9 1000 0 9 -- Chart
1954 8 23 06 24.4 131.7 998 0 9 -- Chart
1954 8 23 12 25.2 130.5 998 0 9 -- Chart
1954 8 23 18 26.0 128.8 998 0 9 -- Chart
1954 8 24 00 27.2 127.3 998 0 9 -- Chart
1954 8 24 06 28.2 126.1 998 0 9 -- Chart
1954 8 24 12 29.2 125.3 998 0 9 -- Chart
1954 8 24 18 30.0 124.4 998 0 9 -- Chart
1954 8 25 00 31.0 123.4 998 0 9 -- Chart
1954 8 25 06 32.0 122.4 1000 0 9 -- Chart
1954 8 25 12 33.0 121.8 1000 0 9 -- Chart
1954 8 25 18 34.0 121.0 1000 0 9 -- Chart
1954 8 26 00 35.0 120.2 1000 0 9 -- Chart
1954 8 26 06 37.5 121.8 1000 0 9 -- Chart
1954 8 26 12 39.3 124.0 1000 0 9 -- Chart
1954 8 26 18 41.3 127.2 1000 0 9 -- Chart
1954 8 27 00 43.1 131.0 1000 0 9 -- Chart
1954 8 27 06 43.8 134.6 996 0 6 -- Chart
1954 8 27 12 44.9 140.0 1000 0 6 -- Chart
1954 8 27 18 45.9 145.0 1000 0 6 -- Chart
1954 8 28 00 47.2 148.8 1002 0 6 -- Chart
Japan Meteorological Agency Best Track Data | Correction Date : 1989-06-01
< Typhoon 195406 1954 Season Typhoon 195408 >

Help